Time;durP1;ratioP1;P1;durP2;ratioP2;P2;SDS_P1;SDS_P2;PMS_P1;PMS_P2;Temp;Humidity;BMP_temperature;BMP_pressure;BME280_temperature;BME280_humidity;BME280_pressure;Samples;Min_cycle;Max_cycle;Signal;HPM_P1;HPM_P2
2024/02/16 00:02:38;;;;;;;7.38;2.78;;;;;;;12.53;70.57;100151.66;10264987;28;20051;-59
2024/02/16 00:07:40;;;;;;;4.60;2.28;;;;;;;12.56;70.59;100159.34;10264259;28;20054;-59
2024/02/16 00:12:42;;;;;;;3.65;2.40;;;;;;;12.55;70.59;100147.72;10265567;28;20047;-59
2024/02/16 00:17:43;;;;;;;7.82;3.70;;;;;;;12.43;70.65;100149.28;10257430;28;20051;-59
2024/02/16 00:22:45;;;;;;;10.07;2.42;;;;;;;12.48;70.79;100144.16;10258007;28;20055;-59
2024/02/16 00:27:46;;;;;;;4.10;2.40;;;;;;;12.40;70.64;100141.56;10256330;28;20058;-59
2024/02/16 00:32:48;;;;;;;8.20;2.40;;;;;;;12.34;71.08;100143.16;10259643;28;20050;-59
2024/02/16 00:37:50;;;;;;;6.57;3.35;;;;;;;12.24;71.46;100135.44;10259099;28;20536;-59
2024/02/16 00:42:53;;;;;;;8.68;2.58;;;;;;;12.25;71.04;100130.88;10263993;28;20051;-58
2024/02/16 00:47:57;;;;;;;7.40;2.67;;;;;;;12.36;70.93;100142.97;10261810;28;20059;-58
2024/02/16 00:53:00;;;;;;;8.57;2.70;;;;;;;12.28;70.69;100128.63;10259382;28;20051;-58
2024/02/16 00:58:01;;;;;;;10.10;2.70;;;;;;;12.30;70.89;100131.09;10260933;28;20043;-58
2024/02/16 01:03:03;;;;;;;6.68;2.47;;;;;;;12.25;71.12;100122.78;10262437;28;20438;-59
2024/02/16 01:08:05;;;;;;;4.80;2.53;;;;;;;12.27;71.10;100126.13;10264068;28;20082;-58
2024/02/16 01:13:06;;;;;;;6.60;2.45;;;;;;;12.25;70.83;100123.59;10253880;28;20413;-58
2024/02/16 01:18:08;;;;;;;7.20;2.72;;;;;;;12.29;70.66;100115.97;10266399;28;20125;-58
2024/02/16 01:23:09;;;;;;;5.22;1.73;;;;;;;12.29;70.59;100119.50;10256506;28;20047;-58
2024/02/16 01:28:13;;;;;;;6.85;1.88;;;;;;;12.28;70.88;100122.38;10267886;28;20554;-59
2024/02/16 01:33:14;;;;;;;4.53;2.03;;;;;;;12.21;70.91;100122.31;10266032;28;20051;-59
2024/02/16 01:38:16;;;;;;;3.70;2.08;;;;;;;12.24;70.67;100107.63;10261399;28;20580;-58
2024/02/16 01:43:21;;;;;;;5.85;2.05;;;;;;;12.24;70.59;100111.19;10256963;28;20580;-58
2024/02/16 01:48:23;;;;;;;4.40;1.95;;;;;;;12.25;70.46;100114.69;10267535;28;20063;-59
2024/02/16 01:53:24;;;;;;;6.00;2.17;;;;;;;12.20;70.83;100112.56;10262532;28;20071;-59
2024/02/16 01:58:26;;;;;;;7.38;1.55;;;;;;;12.13;71.35;100118.94;10268419;28;20079;-58
2024/02/16 02:03:29;;;;;;;5.00;1.42;;;;;;;12.13;71.34;100122.47;10262886;28;20524;-58
2024/02/16 02:08:30;;;;;;;5.25;1.65;;;;;;;12.10;71.04;100121.00;10270026;28;20086;-58
2024/02/16 02:13:32;;;;;;;9.98;3.13;;;;;;;12.14;71.13;100124.13;10267057;28;20047;-59
2024/02/16 02:18:36;;;;;;;6.22;2.58;;;;;;;12.02;71.06;100114.88;10260635;28;20636;-59
2024/02/16 02:23:38;;;;;;;13.35;3.30;;;;;;;12.03;71.17;100113.88;10274055;28;20569;-59
2024/02/16 02:28:39;;;;;;;9.23;4.80;;;;;;;12.06;70.88;100113.47;10264763;28;20062;-59
2024/02/16 02:33:41;;;;;;;8.70;4.05;;;;;;;11.99;71.50;100102.63;10266167;28;20136;-59
2024/02/16 02:38:44;;;;;;;5.85;2.58;;;;;;;11.96;70.97;100094.91;10268362;28;20061;-59
2024/02/16 02:43:45;;;;;;;3.75;1.90;;;;;;;11.99;71.07;100091.03;10263917;28;20146;-59
2024/02/16 02:48:47;;;;;;;4.80;2.15;;;;;;;11.85;71.38;100090.03;10269693;28;20070;-58
2024/02/16 02:53:53;;;;;;;4.00;1.73;;;;;;;11.87;71.55;100093.38;10264108;28;20051;-59
2024/02/16 02:58:54;;;;;;;8.50;1.00;;;;;;;11.87;71.06;100112.22;10259118;28;20054;-59
2024/02/16 03:03:56;;;;;;;5.20;1.23;;;;;;;11.84;71.12;100088.34;10271087;28;20063;-60
2024/02/16 03:08:57;;;;;;;7.15;1.50;;;;;;;11.84;71.16;100089.16;10268514;28;20058;-60
2024/02/16 03:13:59;;;;;;;3.17;1.67;;;;;;;11.86;71.22;100097.06;10260335;28;20042;-60
2024/02/16 03:19:01;;;;;;;3.60;1.15;;;;;;;11.85;71.06;100112.41;10268043;28;20059;-60
2024/02/16 03:24:03;;;;;;;7.38;1.42;;;;;;;11.83;71.09;100113.63;10269466;28;20059;-60
2024/02/16 03:29:05;;;;;;;1.95;1.20;;;;;;;11.69;71.84;100110.78;10262983;28;20141;-60
2024/02/16 03:34:06;;;;;;;3.75;1.20;;;;;;;11.74;71.62;100107.50;10259054;28;20055;-60
2024/02/16 03:39:08;;;;;;;6.47;1.50;;;;;;;11.74;71.50;100095.91;10256274;28;20055;-60
2024/02/16 03:44:10;;;;;;;5.68;1.42;;;;;;;11.68;71.43;100105.56;10258767;28;20069;-60
2024/02/16 03:49:12;;;;;;;3.55;1.80;;;;;;;11.67;71.40;100103.88;10256476;28;20486;-60
2024/02/16 03:54:14;;;;;;;4.15;1.63;;;;;;;11.68;71.37;100098.31;10264735;28;20063;-60
2024/02/16 03:59:15;;;;;;;5.13;1.40;;;;;;;11.70;71.57;100108.91;10258815;28;20054;-60
2024/02/16 04:04:17;;;;;;;6.55;1.63;;;;;;;11.68;71.20;100111.78;10262462;28;20078;-60
2024/02/16 04:09:18;;;;;;;4.53;1.73;;;;;;;11.68;71.67;100119.84;10261601;28;20524;-60
2024/02/16 04:14:20;;;;;;;3.30;1.77;;;;;;;11.69;71.23;100118.84;10267517;28;20079;-60
2024/02/16 04:19:22;;;;;;;3.92;1.55;;;;;;;11.70;71.41;100119.66;10263974;28;20109;-60
2024/02/16 04:24:23;;;;;;;3.72;1.50;;;;;;;11.67;71.65;100120.91;10268078;28;20069;-60
2024/02/16 04:29:25;;;;;;;3.67;1.38;;;;;;;11.66;71.42;100131.84;10261283;28;20055;-60
2024/02/16 04:34:26;;;;;;;3.70;1.52;;;;;;;11.65;71.23;100138.25;10261220;28;20490;-60
2024/02/16 04:39:30;;;;;;;3.65;1.77;;;;;;;11.62;71.37;100130.56;10264475;28;20052;-60
2024/02/16 04:44:32;;;;;;;6.30;2.75;;;;;;;11.56;71.58;100134.00;10262927;28;20051;-60
2024/02/16 04:49:33;;;;;;;5.88;1.73;;;;;;;11.56;71.82;100129.44;10259077;28;20046;-60
2024/02/16 04:54:36;;;;;;;4.00;1.95;;;;;;;11.61;71.43;100110.88;10257251;28;20510;-60
2024/02/16 04:59:37;;;;;;;3.45;2.85;;;;;;;11.65;71.71;100117.56;10253891;28;20499;-60
2024/02/16 05:04:39;;;;;;;5.22;2.95;;;;;;;11.32;72.64;100131.41;10254746;28;20865;-60
2024/02/16 05:09:41;;;;;;;8.07;3.00;;;;;;;11.40;72.86;100140.44;10254841;28;20051;-59
2024/02/16 05:14:42;;;;;;;7.93;2.80;;;;;;;11.43;72.43;100138.19;10261518;28;20386;-59
2024/02/16 05:19:45;;;;;;;8.40;3.42;;;;;;;11.43;72.23;100124.75;10256000;28;20043;-59
2024/02/16 05:24:48;;;;;;;6.15;3.10;;;;;;;11.42;72.32;100127.63;10269922;28;20050;-59
2024/02/16 05:29:50;;;;;;;4.43;3.13;;;;;;;11.41;72.53;100124.06;10264439;28;20118;-59
2024/02/16 05:34:52;;;;;;;5.57;2.25;;;;;;;11.39;72.63;100130.66;10269511;28;20161;-59
2024/02/16 05:40:18;;;;;;;8.60;2.80;;;;;;;11.41;72.64;100131.31;10261545;28;20063;-59
2024/02/16 05:45:21;;;;;;;6.32;2.97;;;;;;;11.43;72.86;100119.38;10267178;28;20043;-59
2024/02/16 05:50:23;;;;;;;7.60;4.45;;;;;;;11.46;72.44;100115.44;10268136;28;20691;-60
2024/02/16 05:55:25;;;;;;;4.70;2.10;;;;;;;11.46;72.25;100113.59;10270667;28;20053;-59
2024/02/16 06:00:27;;;;;;;4.75;2.38;;;;;;;11.42;72.71;100125.75;10271251;28;20112;-59
2024/02/16 06:05:28;;;;;;;4.22;2.75;;;;;;;11.37;73.16;100119.25;10263487;28;20042;-59
2024/02/16 06:10:31;;;;;;;4.07;2.15;;;;;;;11.38;72.95;100134.41;10266913;28;20047;-59
2024/02/16 06:15:33;;;;;;;9.45;3.08;;;;;;;11.39;72.97;100139.56;10265913;28;20138;-59
2024/02/16 06:20:34;;;;;;;9.90;2.42;;;;;;;11.32;72.93;100133.28;10266981;28;20141;-59
2024/02/16 06:25:36;;;;;;;4.18;2.28;;;;;;;11.34;73.04;100136.63;10265408;28;20051;-59
2024/02/16 06:30:38;;;;;;;5.10;2.60;;;;;;;11.36;73.29;100139.94;10268256;28;20494;-59
2024/02/16 06:35:39;;;;;;;8.50;2.72;;;;;;;11.41;72.93;100152.84;10265737;28;20478;-63
2024/02/16 06:40:41;;;;;;;4.63;2.17;;;;;;;11.42;73.00;100147.28;10267776;28;20061;-64
2024/02/16 06:45:42;;;;;;;7.43;4.18;;;;;;;11.22;73.26;100154.25;10271742;28;20085;-62
2024/02/16 06:50:44;;;;;;;9.15;4.07;;;;;;;11.30;73.30;100144.22;10264166;28;20046;-63
2024/02/16 06:55:45;;;;;;;11.98;3.42;;;;;;;11.36;73.21;100152.59;10264129;28;20119;-63
2024/02/16 07:00:47;;;;;;;6.75;3.25;;;;;;;11.42;73.38;100157.22;10261682;28;20554;-61
2024/02/16 07:05:49;;;;;;;8.05;3.67;;;;;;;11.52;73.29;100160.47;10259792;28;20501;-62
2024/02/16 07:10:52;;;;;;;7.05;2.80;;;;;;;11.65;73.16;100155.25;10266270;28;20129;-62
2024/02/16 07:15:54;;;;;;;5.75;3.28;;;;;;;11.76;72.91;100171.94;10261187;28;20517;-61
2024/02/16 07:20:56;;;;;;;8.70;3.60;;;;;;;11.82;73.05;100169.31;10262711;28;20051;-62
2024/02/16 07:25:58;;;;;;;6.80;3.83;;;;;;;11.99;73.22;100186.16;10265328;28;20418;-66
2024/02/16 07:31:01;;;;;;;6.97;4.72;;;;;;;12.13;72.81;100183.59;10262245;28;20051;-66
2024/02/16 07:36:04;;;;;;;9.32;4.75;;;;;;;12.32;73.01;100188.34;10265434;28;20122;-67
2024/02/16 07:41:07;;;;;;;10.52;4.95;;;;;;;12.51;72.96;100181.50;10268923;28;20674;-66
2024/02/16 07:46:10;;;;;;;9.80;4.47;;;;;;;12.74;73.02;100183.16;10284414;28;20050;-67
2024/02/16 07:51:11;;;;;;;10.90;3.88;;;;;;;13.01;72.66;100193.16;10271300;28;20054;-67
2024/02/16 07:56:14;;;;;;;12.13;4.45;;;;;;;13.19;72.51;100211.56;10268453;28;20057;-67
2024/02/16 08:01:16;;;;;;;7.40;3.70;;;;;;;13.35;72.37;100205.03;10264570;28;20058;-67
2024/02/16 08:06:20;;;;;;;12.00;4.07;;;;;;;13.56;72.13;100206.00;10265825;28;20126;-67
2024/02/16 08:11:23;;;;;;;7.90;3.92;;;;;;;13.78;71.74;100196.75;10266970;28;20106;-67
2024/02/16 08:16:24;;;;;;;5.90;3.33;;;;;;;13.85;71.47;100194.91;10262814;28;20061;-67
2024/02/16 08:21:26;;;;;;;8.27;3.65;;;;;;;13.89;71.17;100200.75;10267868;28;20051;-67
2024/02/16 08:26:27;;;;;;;9.57;4.00;;;;;;;13.91;71.01;100209.50;10268172;28;20141;-67
2024/02/16 08:31:29;;;;;;;5.93;3.75;;;;;;;13.99;70.85;100216.59;10258144;28;20050;-67
2024/02/16 08:36:31;;;;;;;10.55;4.57;;;;;;;14.08;70.53;100226.22;10261805;28;20470;-66
2024/02/16 08:41:33;;;;;;;7.10;4.65;;;;;;;14.16;70.35;100208.94;10268477;28;20536;-69
2024/02/16 08:46:35;;;;;;;9.35;4.63;;;;;;;14.18;70.15;100207.72;10260003;28;20055;-67
2024/02/16 08:51:37;;;;;;;11.60;5.47;;;;;;;14.27;69.83;100216.47;10257758;28;20450;-67
2024/02/16 08:56:39;;;;;;;9.10;5.25;;;;;;;14.34;69.45;100219.22;10279193;28;20067;-67
2024/02/16 09:01:43;;;;;;;9.80;4.82;;;;;;;14.48;68.85;100229.84;10284810;28;20390;-66
2024/02/16 09:06:44;;;;;;;6.80;4.60;;;;;;;14.70;68.43;100235.13;10295304;28;20065;-67
2024/02/16 09:11:46;;;;;;;6.90;3.90;;;;;;;14.70;68.43;100237.84;10293674;28;20146;-66
2024/02/16 09:16:51;;;;;;;9.85;5.15;;;;;;;14.72;68.10;100243.03;10283042;28;20109;-66
2024/02/16 09:21:54;;;;;;;10.23;4.85;;;;;;;14.84;67.80;100241.38;10283966;28;20049;-67
2024/02/16 09:27:03;;;;;;;10.55;4.78;;;;;;;15.00;67.27;100245.56;10290935;28;20054;-68
2024/02/16 09:32:05;;;;;;;10.80;5.40;;;;;;;15.08;67.01;100250.75;10279213;28;20067;-67
2024/02/16 09:37:07;;;;;;;11.73;6.18;;;;;;;15.15;66.59;100256.19;10291434;28;20480;-67
2024/02/16 09:42:08;;;;;;;7.53;4.68;;;;;;;15.19;66.51;100260.16;10283168;28;20494;-67
2024/02/16 09:47:12;;;;;;;8.63;4.93;;;;;;;15.12;66.45;100259.31;10284341;28;20062;-66
2024/02/16 09:52:14;;;;;;;8.35;4.85;;;;;;;15.08;66.30;100267.00;10281510;28;20046;-66
2024/02/16 09:57:18;;;;;;;9.50;5.05;;;;;;;15.18;65.91;100264.72;10278899;28;20067;-66
2024/02/16 10:02:21;;;;;;;7.57;4.65;;;;;;;15.22;65.48;100257.84;10269782;28;20142;-70
2024/02/16 10:07:32;;;;;;;7.18;4.15;;;;;;;15.37;65.26;100260.34;10265591;28;20409;-70
2024/02/16 10:12:34;;;;;;;6.90;3.90;;;;;;;15.65;64.70;100264.69;10267645;28;20050;-69
2024/02/16 10:17:35;;;;;;;7.15;4.25;;;;;;;15.73;64.46;100278.03;10266513;28;20047;-70
2024/02/16 10:22:37;;;;;;;6.55;4.22;;;;;;;15.77;63.98;100278.44;10263174;28;20039;-70
2024/02/16 10:27:47;;;;;;;9.32;5.15;;;;;;;15.75;64.00;100289.50;10260785;28;20054;-70
2024/02/16 10:32:50;;;;;;;8.27;3.92;;;;;;;15.99;63.33;100298.81;10268686;28;20071;-71
2024/02/16 10:37:52;;;;;;;6.25;3.72;;;;;;;16.24;62.50;100296.25;10265789;28;20059;-66
2024/02/16 10:42:54;;;;;;;5.55;3.63;;;;;;;16.28;62.05;100306.66;10266518;28;20046;-70
2024/02/16 10:47:56;;;;;;;9.85;3.83;;;;;;;16.35;62.15;100319.16;10264378;28;20054;-69
2024/02/16 10:53:05;;;;;;;6.50;3.90;;;;;;;16.30;62.07;100302.69;10267135;28;20047;-71
2024/02/16 10:58:08;;;;;;;10.00;3.85;;;;;;;16.27;61.79;100292.25;10266331;28;20055;-70
2024/02/16 11:03:16;;;;;;;8.07;3.80;;;;;;;16.34;61.49;100298.50;10263437;28;20498;-70
2024/02/16 11:08:20;;;;;;;4.40;3.10;;;;;;;16.54;61.05;100300.28;10267564;28;20047;-69
2024/02/16 11:13:26;;;;;;;6.05;3.20;;;;;;;16.68;60.56;100301.03;10269461;28;20403;-69
2024/02/16 11:18:32;;;;;;;10.23;3.40;;;;;;;16.81;60.24;100285.53;10279864;28;20153;-67
2024/02/16 11:23:35;;;;;;;8.85;3.10;;;;;;;16.88;60.02;100296.34;10267637;28;20145;-66
2024/02/16 11:28:37;;;;;;;5.72;3.20;;;;;;;17.01;59.68;100290.84;10264590;28;20042;-66
2024/02/16 11:33:45;;;;;;;4.55;2.85;;;;;;;16.92;59.46;100303.00;10259803;28;20047;-67
2024/02/16 11:38:47;;;;;;;5.53;2.80;;;;;;;17.05;59.22;100302.09;10263895;28;20047;-67
2024/02/16 11:43:49;;;;;;;5.28;2.72;;;;;;;16.99;59.48;100290.22;10258036;28;20050;-66
2024/02/16 11:48:50;;;;;;;4.10;2.63;;;;;;;17.11;59.18;100298.50;10265446;28;20502;-67
2024/02/16 11:53:57;;;;;;;5.38;2.58;;;;;;;17.11;58.77;100300.38;10263861;28;20046;-69
2024/02/16 11:58:59;;;;;;;5.45;2.65;;;;;;;17.05;58.60;100293.94;10259371;28;20705;-66
2024/02/16 12:04:06;;;;;;;;;;;;;;;17.27;58.77;100291.69;10264887;28;20492;-67
2024/02/16 12:09:09;;;;;;;6.30;2.60;;;;;;;17.38;57.85;100295.59;10266380;28;20473;-66
2024/02/16 12:14:10;;;;;;;3.92;2.22;;;;;;;17.39;57.58;100289.09;10266902;28;20059;-66
2024/02/16 12:19:12;;;;;;;3.75;2.08;;;;;;;17.46;57.45;100292.59;10262167;28;20495;-66
2024/02/16 12:24:14;;;;;;;8.10;2.25;;;;;;;17.42;57.45;100297.63;10263618;28;20141;-64
2024/02/16 12:29:16;;;;;;;5.65;2.92;;;;;;;17.42;57.55;100299.53;10265117;28;20130;-63
2024/02/16 12:34:18;;;;;;;6.85;3.08;;;;;;;17.46;57.48;100303.44;10262145;28;20047;-64
2024/02/16 12:39:20;;;;;;;8.20;3.50;;;;;;;17.44;57.48;100303.66;10267775;28;20055;-65
2024/02/16 12:44:22;;;;;;;7.38;2.80;;;;;;;17.43;57.72;100306.59;10268134;28;20139;-63
2024/02/16 12:49:23;;;;;;;6.20;3.10;;;;;;;17.68;57.32;100308.47;10264473;28;20109;-64
2024/02/16 12:54:26;;;;;;;3.70;1.83;;;;;;;17.96;56.61;100318.91;10266339;28;20047;-65
2024/02/16 12:59:27;;;;;;;10.73;2.25;;;;;;;18.08;56.37;100318.97;10269703;28;20039;-63
2024/02/16 13:04:31;;;;;;;4.78;1.98;;;;;;;18.39;55.70;100310.66;10264382;28;20130;-64
2024/02/16 13:09:33;;;;;;;5.53;2.13;;;;;;;18.66;54.95;100312.19;10262294;28;20055;-64
2024/02/16 13:14:34;;;;;;;3.85;1.52;;;;;;;18.90;54.57;100296.78;10267959;28;20138;-63
2024/02/16 13:19:36;;;;;;;6.30;1.92;;;;;;;19.23;53.57;100301.72;10261160;28;20047;-63
2024/02/16 13:24:37;;;;;;;3.75;1.45;;;;;;;19.19;53.90;100295.09;10264683;28;20130;-66
2024/02/16 13:29:39;;;;;;;5.78;2.65;;;;;;;19.12;53.60;100300.66;10263118;28;20079;-65
2024/02/16 13:34:42;;;;;;;5.43;1.42;;;;;;;18.99;53.72;100290.78;10259739;28;20112;-65
2024/02/16 13:39:43;;;;;;;8.45;1.23;;;;;;;18.91;53.59;100296.56;10263031;28;20055;-66
2024/02/16 13:44:45;;;;;;;3.55;0.98;;;;;;;18.78;54.29;100302.19;10263686;28;20237;-66
2024/02/16 13:49:47;;;;;;;3.63;1.13;;;;;;;18.37;54.52;100296.44;10266862;28;20049;-66
2024/02/16 13:54:48;;;;;;;6.22;1.90;;;;;;;18.34;54.61;100296.88;10266981;28;20062;-67
2024/02/16 13:59:50;;;;;;;4.38;2.20;;;;;;;18.29;55.09;100302.19;10275987;28;20390;-66
2024/02/16 14:04:52;;;;;;;2.92;1.33;;;;;;;18.31;55.00;100299.25;10283126;28;20043;-66
2024/02/16 14:09:54;;;;;;;3.20;1.35;;;;;;;18.14;54.99;100309.91;10271730;28;20055;-66
2024/02/16 14:14:56;;;;;;;3.60;1.17;;;;;;;18.21;55.38;100319.66;10270929;28;20051;-66
2024/02/16 14:19:58;;;;;;;3.20;1.25;;;;;;;18.24;55.15;100326.53;10265601;28;20055;-66
2024/02/16 14:25:00;;;;;;;4.93;1.38;;;;;;;18.12;55.56;100329.16;10240894;28;20082;-67
2024/02/16 14:30:02;;;;;;;2.75;1.33;;;;;;;18.12;55.94;100336.50;10265183;28;20193;-67
2024/02/16 14:35:05;;;;;;;5.13;1.10;;;;;;;17.92;56.35;100339.44;10272692;28;20084;-66
2024/02/16 14:40:09;;;;;;;2.90;1.38;;;;;;;17.77;57.00;100340.59;10264950;28;20050;-66
2024/02/16 14:45:18;;;;;;;8.18;2.53;;;;;;;17.86;57.00;100348.50;10280504;28;20094;-64
2024/02/16 14:50:22;;;;;;;3.97;1.10;;;;;;;17.90;57.12;100360.59;10298891;28;20477;-65
2024/02/16 14:55:23;;;;;;;5.53;1.50;;;;;;;17.78;57.16;100357.75;10304766;28;20051;-65
2024/02/16 15:00:25;;;;;;;3.25;1.30;;;;;;;17.68;57.49;100358.25;10305837;28;20058;-65
2024/02/16 15:05:27;;;;;;;3.58;1.00;;;;;;;17.66;57.92;100359.53;10304966;28;20056;-65
2024/02/16 15:10:28;;;;;;;3.25;1.10;;;;;;;17.54;58.30;100362.13;10306130;28;20678;-66
2024/02/16 15:15:30;;;;;;;5.93;1.50;;;;;;;17.35;58.90;100372.09;10852106;22;20069;-91
2024/02/16 15:20:33;;;;;;;5.20;1.73;;;;;;;17.28;59.63;100376.72;10285403;28;20051;-91
2024/02/16 15:25:35;;;;;;;5.03;1.20;;;;;;;17.24;59.89;100382.63;10272636;28;20115;-92
2024/02/16 15:30:37;;;;;;;7.20;1.67;;;;;;;17.38;59.78;100390.69;10265166;28;20054;-90
2024/02/16 15:35:39;;;;;;;7.03;1.73;;;;;;;17.28;60.29;100402.03;10275094;28;20070;-88
2024/02/16 15:40:41;;;;;;;13.75;4.80;;;;;;;17.30;60.00;100401.81;10256262;28;20079;-89
2024/02/16 15:45:46;;;;;;;4.03;1.33;;;;;;;17.25;60.61;100407.91;10255241;28;20051;-88
2024/02/16 15:50:47;;;;;;;9.07;1.80;;;;;;;17.16;60.83;100415.50;10236651;28;20095;-89
2024/02/16 15:55:53;;;;;;;5.20;2.05;;;;;;;17.18;60.86;100412.53;10294783;23;20989;-66
2024/02/16 16:00:55;;;;;;;8.95;1.88;;;;;;;17.20;60.75;100424.00;10286353;28;20172;-66
2024/02/16 16:05:56;;;;;;;4.03;1.33;;;;;;;17.18;60.99;100435.13;10307401;28;20552;-66
2024/02/16 16:11:02;;;;;;;3.63;1.52;;;;;;;17.17;61.22;100428.00;10304918;28;20709;-66
2024/02/16 16:16:06;;;;;;;5.18;1.23;;;;;;;17.11;61.38;100426.16;10281156;28;20486;-66
2024/02/16 16:21:08;;;;;;;6.65;2.00;;;;;;;17.01;61.87;100436.66;10304795;28;20050;-64
2024/02/16 16:26:09;;;;;;;7.93;1.90;;;;;;;16.94;62.20;100435.84;10303201;28;20105;-65
2024/02/16 16:31:12;;;;;;;8.95;1.80;;;;;;;16.91;62.53;100445.28;10282012;28;20047;-66
2024/02/16 16:36:14;;;;;;;9.18;1.08;;;;;;;16.88;62.31;100442.97;10278270;28;20104;-67
2024/02/16 16:41:16;;;;;;;5.45;2.08;;;;;;;16.93;62.36;100453.22;10280649;28;20054;-67
2024/02/16 16:46:18;;;;;;;4.55;1.77;;;;;;;16.88;62.45;100453.00;10285802;28;20047;-67
2024/02/16 16:51:20;;;;;;;5.30;1.63;;;;;;;16.88;62.39;100461.97;10307961;28;20050;-66
2024/02/16 16:56:22;;;;;;;6.65;1.95;;;;;;;16.75;62.77;100462.84;10306422;28;20046;-67
2024/02/16 17:01:24;;;;;;;7.07;3.15;;;;;;;16.71;62.92;100471.63;10297932;28;20061;-65
2024/02/16 17:06:25;;;;;;;5.68;2.10;;;;;;;16.58;63.48;100476.03;10289300;28;20394;-66
2024/02/16 17:11:27;;;;;;;5.30;2.47;;;;;;;16.60;63.64;100495.66;10303612;28;20050;-64
2024/02/16 17:16:29;;;;;;;3.50;2.35;;;;;;;16.56;63.90;100504.44;10301377;28;20061;-62
2024/02/16 17:21:31;;;;;;;4.10;2.15;;;;;;;16.42;64.42;100512.59;10317343;28;20054;-65
2024/02/16 17:26:34;;;;;;;4.80;2.20;;;;;;;16.38;64.70;100524.09;10297680;28;20042;-65
2024/02/16 17:31:36;;;;;;;9.48;2.70;;;;;;;16.25;65.09;100530.34;10297915;28;20409;-64
2024/02/16 17:36:38;;;;;;;10.63;3.10;;;;;;;16.14;65.55;100536.41;10294287;28;20042;-66
2024/02/16 17:41:40;;;;;;;4.95;2.42;;;;;;;16.14;65.80;100539.94;10297398;28;20051;-65
2024/02/16 17:46:43;;;;;;;6.38;2.60;;;;;;;16.11;66.02;100551.19;10291434;28;20050;-65
2024/02/16 17:51:45;;;;;;;7.68;2.50;;;;;;;16.04;66.24;100562.06;10303525;28;20085;-66
2024/02/16 17:56:47;;;;;;;5.07;2.38;;;;;;;15.97;66.99;100563.91;10292666;28;20051;-67
2024/02/16 18:01:49;;;;;;;5.57;2.50;;;;;;;15.94;66.99;100569.75;10305063;28;20050;-66
2024/02/16 18:06:51;;;;;;;6.70;2.95;;;;;;;15.83;67.59;100571.19;10307759;28;20042;-66
2024/02/16 18:11:53;;;;;;;5.20;3.20;;;;;;;15.71;67.86;100578.22;10303507;28;20043;-66
2024/02/16 18:16:54;;;;;;;7.90;3.85;;;;;;;15.59;68.54;100582.56;10305371;28;20062;-69
2024/02/16 18:21:56;;;;;;;8.48;4.43;;;;;;;15.57;68.49;100587.34;10298558;28;20069;-68
2024/02/16 18:26:59;;;;;;;10.43;4.85;;;;;;;15.47;68.92;100593.16;10297219;28;20182;-70
2024/02/16 18:32:00;;;;;;;9.43;6.05;;;;;;;15.32;69.57;100600.56;10305078;28;20070;-67
2024/02/16 18:37:02;;;;;;;12.88;6.68;;;;;;;15.32;69.64;100600.56;10308741;28;20125;-69
2024/02/16 18:42:06;;;;;;;10.20;6.25;;;;;;;15.31;69.55;100599.75;10308022;28;20085;-68
2024/02/16 18:47:07;;;;;;;17.42;8.55;;;;;;;15.24;70.25;100610.56;10310841;28;20050;-68
2024/02/16 18:52:09;;;;;;;13.20;7.07;;;;;;;15.28;70.22;100608.25;10311049;28;20466;-68
2024/02/16 18:57:10;;;;;;;11.00;7.15;;;;;;;15.21;70.12;100619.06;10305708;28;20481;-67
2024/02/16 19:02:12;;;;;;;15.38;6.47;;;;;;;15.14;70.81;100615.47;10304395;28;20050;-69
2024/02/16 19:07:15;;;;;;;11.57;6.65;;;;;;;15.06;71.37;100629.19;10304777;28;20046;-69
2024/02/16 19:12:17;;;;;;;9.88;5.60;;;;;;;15.01;71.55;100629.78;10305993;28;20093;-68
2024/02/16 19:17:19;;;;;;;13.18;5.68;;;;;;;14.90;72.07;100637.63;10307154;28;20085;-68
2024/02/16 19:22:21;;;;;;;11.25;4.88;;;;;;;14.89;71.90;100639.50;10290459;28;20081;-68
2024/02/16 19:27:22;;;;;;;11.25;5.22;;;;;;;14.77;72.46;100641.03;10304445;28;20046;-70
2024/02/16 19:32:24;;;;;;;10.93;6.15;;;;;;;14.67;73.21;100647.66;10309001;28;20049;-68
2024/02/16 19:37:26;;;;;;;10.32;6.18;;;;;;;14.66;73.26;100640.56;10303811;28;20445;-68
2024/02/16 19:42:29;;;;;;;10.55;6.53;;;;;;;14.65;73.34;100643.44;10307848;28;20402;-70
2024/02/16 19:47:30;;;;;;;17.80;7.35;;;;;;;14.58;73.68;100653.41;10288358;28;20050;-70
2024/02/16 19:52:32;;;;;;;15.52;7.78;;;;;;;14.58;73.78;100654.22;10285450;28;20045;-70
2024/02/16 19:57:34;;;;;;;13.73;7.72;;;;;;;14.57;74.09;100667.94;10298548;28;20138;-68
2024/02/16 20:02:36;;;;;;;14.48;7.43;;;;;;;14.59;74.05;100674.84;10302744;28;20122;-70
2024/02/16 20:07:42;;;;;;;15.25;7.20;;;;;;;14.60;74.28;100683.78;10282378;28;20070;-71
2024/02/16 20:12:44;;;;;;;16.50;8.77;;;;;;;14.58;74.15;100683.97;10298146;28;20086;-68
2024/02/16 20:17:46;;;;;;;19.63;8.55;;;;;;;14.55;74.61;100692.44;10306883;28;20398;-70
2024/02/16 20:22:48;;;;;;;13.75;8.15;;;;;;;14.56;74.68;100701.41;10284853;28;20636;-70
2024/02/16 20:27:52;;;;;;;17.92;8.48;;;;;;;14.52;74.96;100708.25;10284296;28;20053;-69
2024/02/16 20:32:56;;;;;;;16.23;8.70;;;;;;;14.57;74.92;100711.22;10303193;28;20129;-68
2024/02/16 20:38:02;;;;;;;20.13;9.82;;;;;;;14.60;74.70;100713.56;10301563;28;20062;-60
2024/02/16 20:43:04;;;;;;;19.60;9.80;;;;;;;14.57;75.21;100722.03;10293427;28;20054;-61
2024/02/16 20:48:06;;;;;;;18.13;10.50;;;;;;;14.47;75.45;100725.03;10300743;28;20816;-63
2024/02/16 20:53:08;;;;;;;21.88;10.23;;;;;;;14.39;75.84;100733.28;10309597;28;20058;-65
2024/02/16 20:58:10;;;;;;;18.67;9.50;;;;;;;14.35;76.01;100746.34;10305456;28;20063;-64
2024/02/16 21:03:11;;;;;;;22.48;11.40;;;;;;;14.20;76.50;100748.28;10267865;28;20572;-63
2024/02/16 21:08:13;;;;;;;17.67;10.27;;;;;;;14.12;76.90;100753.75;10302691;28;20046;-63
2024/02/16 21:13:16;;;;;;;17.08;8.43;;;;;;;14.18;76.76;100761.09;10304332;28;20544;-65
2024/02/16 21:18:18;;;;;;;16.73;9.98;;;;;;;14.12;77.01;100778.09;10299862;28;20042;-65
2024/02/16 21:23:19;;;;;;;19.20;10.38;;;;;;;14.05;77.43;100792.38;10310459;28;20058;-64
2024/02/16 21:28:21;;;;;;;20.30;9.43;;;;;;;13.96;78.04;100825.94;10337688;28;20062;-67
2024/02/16 21:33:23;;;;;;;11.02;5.07;;;;;;;13.83;78.46;100804.97;10328226;28;20063;-67
2024/02/16 21:38:25;;;;;;;3.95;1.98;;;;;;;13.83;78.69;100812.25;10295955;28;20047;-67
2024/02/16 21:43:27;;;;;;;3.38;1.70;;;;;;;13.73;79.08;100820.63;10309882;28;20536;-68
2024/02/16 21:48:29;;;;;;;2.25;1.35;;;;;;;13.71;79.47;100829.94;10287175;28;20061;-68
2024/02/16 21:53:44;;;;;;;2.90;1.35;;;;;;;13.66;79.45;100831.34;10307310;28;20575;-68
2024/02/16 21:58:45;;;;;;;1.40;0.95;;;;;;;13.70;79.29;100839.88;10289643;28;20054;-68
2024/02/16 22:03:48;;;;;;;3.08;0.60;;;;;;;13.67;79.20;100851.06;10302018;28;20445;-69
2024/02/16 22:08:54;;;;;;;0.80;0.50;;;;;;;13.63;79.28;100865.97;10308153;28;20081;-69
2024/02/16 22:13:56;;;;;;;0.93;0.60;;;;;;;13.45;79.50;100875.25;10312408;28;20085;-68
2024/02/16 22:18:57;;;;;;;1.65;0.70;;;;;;;13.50;79.16;100888.19;10302339;28;20547;-68
2024/02/16 22:23:59;;;;;;;3.47;0.80;;;;;;;13.41;79.33;100889.31;10305873;28;20509;-67
2024/02/16 22:29:01;;;;;;;1.27;0.80;;;;;;;13.44;78.87;100900.56;10328140;28;20059;-67
2024/02/16 22:34:03;;;;;;;1.70;1.10;;;;;;;13.42;78.74;100901.75;10312607;28;20053;-67
2024/02/16 22:39:06;;;;;;;2.63;1.77;;;;;;;13.50;78.15;100909.81;10307679;28;20043;-68
2024/02/16 22:44:07;;;;;;;4.15;2.22;;;;;;;13.44;78.06;100911.34;10313563;28;20082;-68
2024/02/16 22:49:09;;;;;;;6.13;3.22;;;;;;;13.45;77.92;100921.16;10313442;28;20557;-68
2024/02/16 22:54:11;;;;;;;5.95;3.10;;;;;;;13.52;77.57;100933.94;10283995;28;20081;-68
2024/02/16 22:59:13;;;;;;;5.85;3.70;;;;;;;13.68;76.50;100934.66;10279742;28;20113;-66
2024/02/16 23:04:15;;;;;;;10.93;5.30;;;;;;;13.65;76.33;100944.97;10269815;28;20387;-66
2024/02/16 23:09:17;;;;;;;12.50;3.97;;;;;;;13.68;76.22;100958.97;10272493;28;20058;-67